sensor_id;sensor_type;location;lat;lon;timestamp;temperature;humidity
13328;DHT22;6733;51.044;3.746;2023-03-24T00:01:04;14.00;99.90
13328;DHT22;6733;51.044;3.746;2023-03-24T00:03:31;14.00;99.90
13328;DHT22;6733;51.044;3.746;2023-03-24T00:05:59;14.00;99.90
13328;DHT22;6733;51.044;3.746;2023-03-24T00:08:33;13.90;99.90
13328;DHT22;6733;51.044;3.746;2023-03-24T00:11:07;13.90;99.90
13328;DHT22;6733;51.044;3.746;2023-03-24T00:13:34;13.90;99.90
13328;DHT22;6733;51.044;3.746;2023-03-24T00:16:05;13.90;99.90
13328;DHT22;6733;51.044;3.746;2023-03-24T00:18:33;13.90;99.90
13328;DHT22;6733;51.044;3.746;2023-03-24T00:20:59;14.00;99.90
13328;DHT22;6733;51.044;3.746;2023-03-24T00:23:27;13.90;99.90
13328;DHT22;6733;51.044;3.746;2023-03-24T00:26:09;14.00;99.90
13328;DHT22;6733;51.044;3.746;2023-03-24T00:28:37;13.90;99.90
13328;DHT22;6733;51.044;3.746;2023-03-24T00:31:05;14.00;99.90
13328;DHT22;6733;51.044;3.746;2023-03-24T00:33:31;14.00;99.90
13328;DHT22;6733;51.044;3.746;2023-03-24T00:36:01;14.00;99.90
13328;DHT22;6733;51.044;3.746;2023-03-24T00:38:27;14.00;99.90
13328;DHT22;6733;51.044;3.746;2023-03-24T00:40:54;14.00;99.90
13328;DHT22;6733;51.044;3.746;2023-03-24T00:43:20;14.00;99.90
13328;DHT22;6733;51.044;3.746;2023-03-24T00:45:47;14.00;99.90
13328;DHT22;6733;51.044;3.746;2023-03-24T00:48:15;14.00;99.90
13328;DHT22;6733;51.044;3.746;2023-03-24T00:50:48;14.00;99.90
13328;DHT22;6733;51.044;3.746;2023-03-24T00:53:16;14.00;99.90
13328;DHT22;6733;51.044;3.746;2023-03-24T00:55:45;14.00;99.90
13328;DHT22;6733;51.044;3.746;2023-03-24T00:58:13;14.00;99.90
13328;DHT22;6733;51.044;3.746;2023-03-24T01:00:44;14.00;99.90
13328;DHT22;6733;51.044;3.746;2023-03-24T01:03:11;14.00;99.90
13328;DHT22;6733;51.044;3.746;2023-03-24T01:05:37;13.90;99.90
13328;DHT22;6733;51.044;3.746;2023-03-24T01:08:04;13.90;99.90
13328;DHT22;6733;51.044;3.746;2023-03-24T01:10:32;13.80;99.90
13328;DHT22;6733;51.044;3.746;2023-03-24T01:12:59;13.80;99.90
13328;DHT22;6733;51.044;3.746;2023-03-24T01:15:31;13.70;99.90
13328;DHT22;6733;51.044;3.746;2023-03-24T01:17:58;13.70;99.90
13328;DHT22;6733;51.044;3.746;2023-03-24T01:20:28;13.60;99.90
13328;DHT22;6733;51.044;3.746;2023-03-24T01:22:59;13.50;99.90
13328;DHT22;6733;51.044;3.746;2023-03-24T01:25:26;13.30;99.90
13328;DHT22;6733;51.044;3.746;2023-03-24T01:27:53;13.20;99.90
13328;DHT22;6733;51.044;3.746;2023-03-24T01:30:22;13.10;99.90
13328;DHT22;6733;51.044;3.746;2023-03-24T01:32:50;12.90;99.90
13328;DHT22;6733;51.044;3.746;2023-03-24T01:35:17;12.90;99.90
13328;DHT22;6733;51.044;3.746;2023-03-24T01:37:44;12.90;99.90
13328;DHT22;6733;51.044;3.746;2023-03-24T01:40:17;13.00;99.90
13328;DHT22;6733;51.044;3.746;2023-03-24T01:42:43;12.90;99.90
13328;DHT22;6733;51.044;3.746;2023-03-24T01:48:05;12.80;99.90
13328;DHT22;6733;51.044;3.746;2023-03-24T01:50:33;12.70;99.90
13328;DHT22;6733;51.044;3.746;2023-03-24T01:52:59;12.50;99.90
13328;DHT22;6733;51.044;3.746;2023-03-24T01:55:27;12.50;99.90
13328;DHT22;6733;51.044;3.746;2023-03-24T01:57:57;12.50;99.90
13328;DHT22;6733;51.044;3.746;2023-03-24T02:00:25;12.50;99.90
13328;DHT22;6733;51.044;3.746;2023-03-24T02:02:55;12.40;99.90
13328;DHT22;6733;51.044;3.746;2023-03-24T02:05:36;12.30;99.90
13328;DHT22;6733;51.044;3.746;2023-03-24T02:10:36;12.30;99.90
13328;DHT22;6733;51.044;3.746;2023-03-24T02:13:03;12.30;99.90
13328;DHT22;6733;51.044;3.746;2023-03-24T02:15:31;12.30;99.90
13328;DHT22;6733;51.044;3.746;2023-03-24T02:18:19;12.20;99.90
13328;DHT22;6733;51.044;3.746;2023-03-24T02:47:42;11.60;99.90
13328;DHT22;6733;51.044;3.746;2023-03-24T02:50:28;11.60;99.90
13328;DHT22;6733;51.044;3.746;2023-03-24T02:53:14;11.60;99.90
13328;DHT22;6733;51.044;3.746;2023-03-24T02:56:06;11.60;99.90
13328;DHT22;6733;51.044;3.746;2023-03-24T03:01:14;11.60;99.90
13328;DHT22;6733;51.044;3.746;2023-03-24T03:03:49;11.60;99.90
13328;DHT22;6733;51.044;3.746;2023-03-24T03:06:31;11.50;99.90
13328;DHT22;6733;51.044;3.746;2023-03-24T03:09:02;11.50;99.90
13328;DHT22;6733;51.044;3.746;2023-03-24T03:11:29;11.50;99.90
13328;DHT22;6733;51.044;3.746;2023-03-24T03:14:02;11.50;99.90
13328;DHT22;6733;51.044;3.746;2023-03-24T03:16:41;11.50;99.90
13328;DHT22;6733;51.044;3.746;2023-03-24T03:19:27;11.50;99.90
13328;DHT22;6733;51.044;3.746;2023-03-24T03:21:55;11.50;99.90
13328;DHT22;6733;51.044;3.746;2023-03-24T03:24:31;11.50;99.90
13328;DHT22;6733;51.044;3.746;2023-03-24T03:27:15;11.50;99.90
13328;DHT22;6733;51.044;3.746;2023-03-24T03:29:49;11.50;99.90
13328;DHT22;6733;51.044;3.746;2023-03-24T03:32:27;11.40;99.90
13328;DHT22;6733;51.044;3.746;2023-03-24T03:37:32;11.30;99.90
13328;DHT22;6733;51.044;3.746;2023-03-24T03:40:05;11.30;99.90
13328;DHT22;6733;51.044;3.746;2023-03-24T03:42:34;11.30;99.90
13328;DHT22;6733;51.044;3.746;2023-03-24T03:45:01;11.20;99.90
13328;DHT22;6733;51.044;3.746;2023-03-24T03:47:27;11.20;99.90
13328;DHT22;6733;51.044;3.746;2023-03-24T03:49:54;11.20;99.90
13328;DHT22;6733;51.044;3.746;2023-03-24T03:52:20;11.20;99.90
13328;DHT22;6733;51.044;3.746;2023-03-24T03:54:47;11.20;99.90
13328;DHT22;6733;51.044;3.746;2023-03-24T03:57:13;11.20;99.90
13328;DHT22;6733;51.044;3.746;2023-03-24T03:59:40;11.10;99.90
13328;DHT22;6733;51.044;3.746;2023-03-24T04:02:31;11.10;99.90
13328;DHT22;6733;51.044;3.746;2023-03-24T04:05:14;11.00;99.90
13328;DHT22;6733;51.044;3.746;2023-03-24T04:11:09;10.90;99.90
13328;DHT22;6733;51.044;3.746;2023-03-24T04:13:53;10.80;99.90
13328;DHT22;6733;51.044;3.746;2023-03-24T04:19:30;10.90;99.90
13328;DHT22;6733;51.044;3.746;2023-03-24T04:22:23;10.90;99.90
13328;DHT22;6733;51.044;3.746;2023-03-24T04:25:17;10.90;99.90
13328;DHT22;6733;51.044;3.746;2023-03-24T04:28:21;10.90;99.90
13328;DHT22;6733;51.044;3.746;2023-03-24T04:31:02;10.90;99.90
13328;DHT22;6733;51.044;3.746;2023-03-24T04:33:55;11.00;99.90
13328;DHT22;6733;51.044;3.746;2023-03-24T04:39:20;10.90;99.90
13328;DHT22;6733;51.044;3.746;2023-03-24T04:41:55;10.90;99.90
13328;DHT22;6733;51.044;3.746;2023-03-24T04:44:23;10.80;99.90
13328;DHT22;6733;51.044;3.746;2023-03-24T04:46:52;10.80;99.90
13328;DHT22;6733;51.044;3.746;2023-03-24T04:49:19;10.70;99.90
13328;DHT22;6733;51.044;3.746;2023-03-24T04:51:50;10.70;99.90
13328;DHT22;6733;51.044;3.746;2023-03-24T04:54:18;10.70;99.90
13328;DHT22;6733;51.044;3.746;2023-03-24T04:56:52;10.60;99.90
13328;DHT22;6733;51.044;3.746;2023-03-24T04:59:18;10.70;99.90
13328;DHT22;6733;51.044;3.746;2023-03-24T05:01:45;10.70;99.90
13328;DHT22;6733;51.044;3.746;2023-03-24T05:04:16;10.70;99.90
13328;DHT22;6733;51.044;3.746;2023-03-24T05:06:42;10.70;99.90
13328;DHT22;6733;51.044;3.746;2023-03-24T05:09:08;10.70;99.90
13328;DHT22;6733;51.044;3.746;2023-03-24T05:11:34;10.70;99.90
13328;DHT22;6733;51.044;3.746;2023-03-24T05:14:01;10.70;99.90
13328;DHT22;6733;51.044;3.746;2023-03-24T05:16:27;10.70;99.90
13328;DHT22;6733;51.044;3.746;2023-03-24T05:18:53;10.70;99.90
13328;DHT22;6733;51.044;3.746;2023-03-24T05:21:19;10.70;99.90
13328;DHT22;6733;51.044;3.746;2023-03-24T05:23:46;10.70;99.90
13328;DHT22;6733;51.044;3.746;2023-03-24T05:26:12;10.60;99.90
13328;DHT22;6733;51.044;3.746;2023-03-24T05:28:38;10.60;99.90
13328;DHT22;6733;51.044;3.746;2023-03-24T05:31:05;10.60;99.90
13328;DHT22;6733;51.044;3.746;2023-03-24T05:33:31;10.70;99.90
13328;DHT22;6733;51.044;3.746;2023-03-24T05:35:57;10.70;99.90
13328;DHT22;6733;51.044;3.746;2023-03-24T05:38:23;10.70;99.90
13328;DHT22;6733;51.044;3.746;2023-03-24T05:40:49;10.80;99.90
13328;DHT22;6733;51.044;3.746;2023-03-24T05:43:15;10.90;99.90
13328;DHT22;6733;51.044;3.746;2023-03-24T05:45:42;10.90;99.90
13328;DHT22;6733;51.044;3.746;2023-03-24T05:48:08;11.00;99.90
13328;DHT22;6733;51.044;3.746;2023-03-24T05:50:35;11.10;99.90
13328;DHT22;6733;51.044;3.746;2023-03-24T05:53:01;11.10;99.90
13328;DHT22;6733;51.044;3.746;2023-03-24T05:55:27;11.20;99.90
13328;DHT22;6733;51.044;3.746;2023-03-24T05:57:53;11.20;99.90
13328;DHT22;6733;51.044;3.746;2023-03-24T06:00:20;11.20;99.90
13328;DHT22;6733;51.044;3.746;2023-03-24T06:02:48;11.30;99.90
13328;DHT22;6733;51.044;3.746;2023-03-24T06:05:15;11.30;99.90
13328;DHT22;6733;51.044;3.746;2023-03-24T06:07:41;11.30;99.90
13328;DHT22;6733;51.044;3.746;2023-03-24T06:10:11;11.30;99.90
13328;DHT22;6733;51.044;3.746;2023-03-24T06:12:40;11.40;99.90
13328;DHT22;6733;51.044;3.746;2023-03-24T06:15:07;11.40;99.90
13328;DHT22;6733;51.044;3.746;2023-03-24T06:17:34;11.50;99.90
13328;DHT22;6733;51.044;3.746;2023-03-24T06:20:03;11.50;99.90
13328;DHT22;6733;51.044;3.746;2023-03-24T06:22:34;11.60;99.90
13328;DHT22;6733;51.044;3.746;2023-03-24T06:25:01;11.60;99.90
13328;DHT22;6733;51.044;3.746;2023-03-24T06:27:29;11.70;99.90
13328;DHT22;6733;51.044;3.746;2023-03-24T06:29:56;11.80;99.90
13328;DHT22;6733;51.044;3.746;2023-03-24T06:32:23;11.80;99.90
13328;DHT22;6733;51.044;3.746;2023-03-24T06:34:49;11.70;99.90
13328;DHT22;6733;51.044;3.746;2023-03-24T06:37:16;11.80;99.90
13328;DHT22;6733;51.044;3.746;2023-03-24T06:39:42;11.90;99.90
13328;DHT22;6733;51.044;3.746;2023-03-24T06:42:08;12.00;99.90
13328;DHT22;6733;51.044;3.746;2023-03-24T06:44:34;12.00;99.90
13328;DHT22;6733;51.044;3.746;2023-03-24T06:47:00;12.00;99.90
13328;DHT22;6733;51.044;3.746;2023-03-24T06:49:26;12.00;99.90
13328;DHT22;6733;51.044;3.746;2023-03-24T06:51:52;12.00;99.90
13328;DHT22;6733;51.044;3.746;2023-03-24T06:54:19;12.00;99.90
13328;DHT22;6733;51.044;3.746;2023-03-24T06:56:45;12.00;99.90
13328;DHT22;6733;51.044;3.746;2023-03-24T06:59:11;12.10;99.90
13328;DHT22;6733;51.044;3.746;2023-03-24T07:01:38;12.10;99.90
13328;DHT22;6733;51.044;3.746;2023-03-24T07:04:05;12.20;99.90
13328;DHT22;6733;51.044;3.746;2023-03-24T07:06:31;12.20;99.90
13328;DHT22;6733;51.044;3.746;2023-03-24T07:08:58;12.20;99.90
13328;DHT22;6733;51.044;3.746;2023-03-24T07:11:24;12.30;99.90
13328;DHT22;6733;51.044;3.746;2023-03-24T07:13:50;12.20;99.90
13328;DHT22;6733;51.044;3.746;2023-03-24T07:16:16;12.20;99.90
13328;DHT22;6733;51.044;3.746;2023-03-24T07:18:43;12.20;99.90
13328;DHT22;6733;51.044;3.746;2023-03-24T07:21:09;12.30;99.90
13328;DHT22;6733;51.044;3.746;2023-03-24T07:23:35;12.40;99.90
13328;DHT22;6733;51.044;3.746;2023-03-24T07:26:01;12.40;99.90
13328;DHT22;6733;51.044;3.746;2023-03-24T07:28:27;12.50;99.90
13328;DHT22;6733;51.044;3.746;2023-03-24T07:30:53;12.40;99.90
13328;DHT22;6733;51.044;3.746;2023-03-24T07:33:19;12.40;99.90
13328;DHT22;6733;51.044;3.746;2023-03-24T07:35:46;12.40;99.90
13328;DHT22;6733;51.044;3.746;2023-03-24T07:38:13;12.40;99.90
13328;DHT22;6733;51.044;3.746;2023-03-24T07:40:39;12.60;99.90
13328;DHT22;6733;51.044;3.746;2023-03-24T07:43:05;12.70;99.90
13328;DHT22;6733;51.044;3.746;2023-03-24T07:45:31;12.80;99.90
13328;DHT22;6733;51.044;3.746;2023-03-24T07:47:57;12.90;99.90
13328;DHT22;6733;51.044;3.746;2023-03-24T07:50:28;13.00;99.90
13328;DHT22;6733;51.044;3.746;2023-03-24T07:52:54;12.80;99.90
13328;DHT22;6733;51.044;3.746;2023-03-24T07:55:21;13.00;99.90
13328;DHT22;6733;51.044;3.746;2023-03-24T07:57:48;13.10;99.90
13328;DHT22;6733;51.044;3.746;2023-03-24T08:00:15;13.30;99.90
13328;DHT22;6733;51.044;3.746;2023-03-24T08:02:47;13.30;99.90
13328;DHT22;6733;51.044;3.746;2023-03-24T08:05:14;12.50;99.90
13328;DHT22;6733;51.044;3.746;2023-03-24T08:07:44;12.20;99.90
13328;DHT22;6733;51.044;3.746;2023-03-24T08:10:15;12.10;99.90
13328;DHT22;6733;51.044;3.746;2023-03-24T08:12:41;12.00;99.90
13328;DHT22;6733;51.044;3.746;2023-03-24T08:15:08;12.00;99.90
13328;DHT22;6733;51.044;3.746;2023-03-24T08:17:35;11.90;99.90
13328;DHT22;6733;51.044;3.746;2023-03-24T08:20:02;11.90;99.90
13328;DHT22;6733;51.044;3.746;2023-03-24T08:22:44;11.90;99.90
13328;DHT22;6733;51.044;3.746;2023-03-24T08:25:11;12.00;99.90
13328;DHT22;6733;51.044;3.746;2023-03-24T08:27:39;12.10;99.90
13328;DHT22;6733;51.044;3.746;2023-03-24T08:30:07;12.10;99.90
13328;DHT22;6733;51.044;3.746;2023-03-24T08:32:35;12.20;99.90
13328;DHT22;6733;51.044;3.746;2023-03-24T08:35:02;12.30;99.90
13328;DHT22;6733;51.044;3.746;2023-03-24T08:37:30;12.30;99.90
13328;DHT22;6733;51.044;3.746;2023-03-24T08:39:56;12.20;99.90
13328;DHT22;6733;51.044;3.746;2023-03-24T08:42:24;12.20;99.90
13328;DHT22;6733;51.044;3.746;2023-03-24T08:44:51;12.10;99.90
13328;DHT22;6733;51.044;3.746;2023-03-24T08:47:17;12.10;99.90
13328;DHT22;6733;51.044;3.746;2023-03-24T08:49:43;12.00;99.90
13328;DHT22;6733;51.044;3.746;2023-03-24T08:52:09;12.20;99.90
13328;DHT22;6733;51.044;3.746;2023-03-24T08:54:35;12.30;99.90
13328;DHT22;6733;51.044;3.746;2023-03-24T08:57:02;12.30;99.90
13328;DHT22;6733;51.044;3.746;2023-03-24T08:59:28;12.30;99.90
13328;DHT22;6733;51.044;3.746;2023-03-24T09:01:54;12.30;99.90
13328;DHT22;6733;51.044;3.746;2023-03-24T09:04:20;12.30;99.90
13328;DHT22;6733;51.044;3.746;2023-03-24T09:06:46;12.40;99.90
13328;DHT22;6733;51.044;3.746;2023-03-24T09:09:12;12.50;99.90
13328;DHT22;6733;51.044;3.746;2023-03-24T09:11:38;12.60;99.90
13328;DHT22;6733;51.044;3.746;2023-03-24T09:14:05;12.80;99.90
13328;DHT22;6733;51.044;3.746;2023-03-24T09:16:31;13.00;99.90
13328;DHT22;6733;51.044;3.746;2023-03-24T09:18:57;13.00;99.90
13328;DHT22;6733;51.044;3.746;2023-03-24T09:21:23;12.80;99.90
13328;DHT22;6733;51.044;3.746;2023-03-24T09:23:49;12.90;99.90
13328;DHT22;6733;51.044;3.746;2023-03-24T09:26:15;12.80;99.90
13328;DHT22;6733;51.044;3.746;2023-03-24T09:28:42;12.80;99.90
13328;DHT22;6733;51.044;3.746;2023-03-24T09:31:09;12.90;99.90
13328;DHT22;6733;51.044;3.746;2023-03-24T09:33:35;12.90;99.90
13328;DHT22;6733;51.044;3.746;2023-03-24T09:36:03;12.80;99.90
13328;DHT22;6733;51.044;3.746;2023-03-24T09:38:29;12.70;99.90
13328;DHT22;6733;51.044;3.746;2023-03-24T09:40:57;12.60;99.90
13328;DHT22;6733;51.044;3.746;2023-03-24T09:43:43;12.60;99.90
13328;DHT22;6733;51.044;3.746;2023-03-24T09:46:13;12.50;99.90
13328;DHT22;6733;51.044;3.746;2023-03-24T09:48:55;12.50;99.90
13328;DHT22;6733;51.044;3.746;2023-03-24T09:51:29;12.40;99.90
13328;DHT22;6733;51.044;3.746;2023-03-24T09:56:36;12.20;99.90
13328;DHT22;6733;51.044;3.746;2023-03-24T09:59:20;12.00;99.90
13328;DHT22;6733;51.044;3.746;2023-03-24T10:01:48;11.90;99.90
13328;DHT22;6733;51.044;3.746;2023-03-24T10:04:19;11.60;99.90
13328;DHT22;6733;51.044;3.746;2023-03-24T10:06:47;11.30;99.90
13328;DHT22;6733;51.044;3.746;2023-03-24T10:09:32;11.10;99.90
13328;DHT22;6733;51.044;3.746;2023-03-24T10:12:10;11.00;99.90
13328;DHT22;6733;51.044;3.746;2023-03-24T10:28:24;11.00;99.90
13328;DHT22;6733;51.044;3.746;2023-03-24T10:30:53;11.10;99.90
13328;DHT22;6733;51.044;3.746;2023-03-24T10:33:20;11.10;99.90
13328;DHT22;6733;51.044;3.746;2023-03-24T10:38:31;11.10;99.90
13328;DHT22;6733;51.044;3.746;2023-03-24T10:40:58;10.90;99.90
13328;DHT22;6733;51.044;3.746;2023-03-24T10:43:25;10.90;99.90
13328;DHT22;6733;51.044;3.746;2023-03-24T10:45:53;11.00;99.90
13328;DHT22;6733;51.044;3.746;2023-03-24T10:48:54;11.10;99.90
13328;DHT22;6733;51.044;3.746;2023-03-24T10:51:32;11.20;99.90
13328;DHT22;6733;51.044;3.746;2023-03-24T10:54:12;11.20;99.90
13328;DHT22;6733;51.044;3.746;2023-03-24T10:56:42;11.40;99.90
13328;DHT22;6733;51.044;3.746;2023-03-24T11:04:37;12.50;99.90
13328;DHT22;6733;51.044;3.746;2023-03-24T11:07:13;12.70;99.90
13328;DHT22;6733;51.044;3.746;2023-03-24T11:09:41;13.00;99.90
13328;DHT22;6733;51.044;3.746;2023-03-24T11:12:24;12.90;99.90
13328;DHT22;6733;51.044;3.746;2023-03-24T11:14:51;12.90;99.90
13328;DHT22;6733;51.044;3.746;2023-03-24T11:17:26;13.10;99.90
13328;DHT22;6733;51.044;3.746;2023-03-24T11:19:53;13.10;99.90
13328;DHT22;6733;51.044;3.746;2023-03-24T11:22:20;13.20;99.90
13328;DHT22;6733;51.044;3.746;2023-03-24T11:24:49;13.60;99.90
13328;DHT22;6733;51.044;3.746;2023-03-24T11:27:18;13.50;99.90
13328;DHT22;6733;51.044;3.746;2023-03-24T11:29:48;13.90;99.90
13328;DHT22;6733;51.044;3.746;2023-03-24T11:32:23;14.10;99.90
13328;DHT22;6733;51.044;3.746;2023-03-24T11:35:01;13.90;99.90
13328;DHT22;6733;51.044;3.746;2023-03-24T11:37:33;13.50;99.90
13328;DHT22;6733;51.044;3.746;2023-03-24T11:42:41;13.40;99.90
13328;DHT22;6733;51.044;3.746;2023-03-24T11:48:23;12.80;99.90
13328;DHT22;6733;51.044;3.746;2023-03-24T11:50:52;12.50;99.90
13328;DHT22;6733;51.044;3.746;2023-03-24T11:53:25;12.30;99.90
13328;DHT22;6733;51.044;3.746;2023-03-24T11:56:12;12.30;99.90
13328;DHT22;6733;51.044;3.746;2023-03-24T11:58:59;12.50;99.90
13328;DHT22;6733;51.044;3.746;2023-03-24T12:01:36;12.40;99.90
13328;DHT22;6733;51.044;3.746;2023-03-24T12:09:26;12.50;99.90
13328;DHT22;6733;51.044;3.746;2023-03-24T12:14:46;12.50;99.90
13328;DHT22;6733;51.044;3.746;2023-03-24T12:17:16;12.40;99.90
13328;DHT22;6733;51.044;3.746;2023-03-24T12:22:47;12.50;99.90
13328;DHT22;6733;51.044;3.746;2023-03-24T12:39:12;12.70;99.90
13328;DHT22;6733;51.044;3.746;2023-03-24T12:50:18;13.30;99.90
13328;DHT22;6733;51.044;3.746;2023-03-24T12:53:08;13.40;99.90
13328;DHT22;6733;51.044;3.746;2023-03-24T13:01:05;13.60;99.90
13328;DHT22;6733;51.044;3.746;2023-03-24T13:03:58;13.60;99.90
13328;DHT22;6733;51.044;3.746;2023-03-24T13:06:36;13.70;99.90
13328;DHT22;6733;51.044;3.746;2023-03-24T13:11:59;13.90;99.90
13328;DHT22;6733;51.044;3.746;2023-03-24T13:14:45;14.10;99.90
13328;DHT22;6733;51.044;3.746;2023-03-24T13:17:18;14.10;99.90
13328;DHT22;6733;51.044;3.746;2023-03-24T13:19:50;13.90;99.90
13328;DHT22;6733;51.044;3.746;2023-03-24T13:22:17;14.00;99.90
13328;DHT22;6733;51.044;3.746;2023-03-24T13:24:45;14.20;99.90
13328;DHT22;6733;51.044;3.746;2023-03-24T13:27:20;14.20;99.90
13328;DHT22;6733;51.044;3.746;2023-03-24T13:32:54;14.30;99.90
13328;DHT22;6733;51.044;3.746;2023-03-24T13:38:31;14.40;99.90
13328;DHT22;6733;51.044;3.746;2023-03-24T13:40:53;14.20;99.90
13328;DHT22;6733;51.044;3.746;2023-03-24T13:43:22;13.90;99.90
13328;DHT22;6733;51.044;3.746;2023-03-24T13:46:03;13.90;99.90
13328;DHT22;6733;51.044;3.746;2023-03-24T13:48:34;13.80;99.90
13328;DHT22;6733;51.044;3.746;2023-03-24T13:51:28;13.80;99.90
13328;DHT22;6733;51.044;3.746;2023-03-24T13:53:58;13.60;99.90
13328;DHT22;6733;51.044;3.746;2023-03-24T13:56:37;13.40;99.90
13328;DHT22;6733;51.044;3.746;2023-03-24T13:59:08;13.60;99.90
13328;DHT22;6733;51.044;3.746;2023-03-24T14:01:42;13.80;99.90
13328;DHT22;6733;51.044;3.746;2023-03-24T14:06:57;14.10;99.90
13328;DHT22;6733;51.044;3.746;2023-03-24T14:09:25;14.00;99.90
13328;DHT22;6733;51.044;3.746;2023-03-24T14:14:25;14.10;99.90
13328;DHT22;6733;51.044;3.746;2023-03-24T14:19:40;13.80;99.90
13328;DHT22;6733;51.044;3.746;2023-03-24T14:22:08;13.80;99.90
13328;DHT22;6733;51.044;3.746;2023-03-24T14:24:39;13.80;99.90
13328;DHT22;6733;51.044;3.746;2023-03-24T14:27:33;14.10;99.90
13328;DHT22;6733;51.044;3.746;2023-03-24T14:30:12;14.10;99.90
13328;DHT22;6733;51.044;3.746;2023-03-24T14:35:43;13.80;99.90
13328;DHT22;6733;51.044;3.746;2023-03-24T14:40:42;13.80;99.90
13328;DHT22;6733;51.044;3.746;2023-03-24T14:43:17;13.60;99.90
13328;DHT22;6733;51.044;3.746;2023-03-24T14:45:50;13.80;99.90
13328;DHT22;6733;51.044;3.746;2023-03-24T14:48:39;13.90;99.90
13328;DHT22;6733;51.044;3.746;2023-03-24T14:51:16;14.70;99.90
13328;DHT22;6733;51.044;3.746;2023-03-24T14:53:45;14.50;99.90
13328;DHT22;6733;51.044;3.746;2023-03-24T14:56:14;14.60;99.90
13328;DHT22;6733;51.044;3.746;2023-03-24T14:58:43;14.80;99.90
13328;DHT22;6733;51.044;3.746;2023-03-24T15:01:11;14.90;99.90
13328;DHT22;6733;51.044;3.746;2023-03-24T15:03:47;14.90;99.90
13328;DHT22;6733;51.044;3.746;2023-03-24T15:06:18;15.20;99.90
13328;DHT22;6733;51.044;3.746;2023-03-24T15:08:51;15.00;99.90
13328;DHT22;6733;51.044;3.746;2023-03-24T15:11:22;14.70;99.90
13328;DHT22;6733;51.044;3.746;2023-03-24T15:13:55;14.50;99.90
13328;DHT22;6733;51.044;3.746;2023-03-24T15:16:30;14.60;99.90
13328;DHT22;6733;51.044;3.746;2023-03-24T15:19:07;15.20;99.90
13328;DHT22;6733;51.044;3.746;2023-03-24T15:21:39;15.70;99.90
13328;DHT22;6733;51.044;3.746;2023-03-24T15:26:48;16.30;99.90
13328;DHT22;6733;51.044;3.746;2023-03-24T15:29:14;16.30;99.90
13328;DHT22;6733;51.044;3.746;2023-03-24T15:31:40;16.40;99.90
13328;DHT22;6733;51.044;3.746;2023-03-24T15:34:26;16.30;99.90
13328;DHT22;6733;51.044;3.746;2023-03-24T15:36:55;15.70;99.90
13328;DHT22;6733;51.044;3.746;2023-03-24T15:39:49;15.10;99.90
13328;DHT22;6733;51.044;3.746;2023-03-24T15:42:20;15.00;99.90
13328;DHT22;6733;51.044;3.746;2023-03-24T15:44:47;15.30;99.90
13328;DHT22;6733;51.044;3.746;2023-03-24T15:47:15;15.30;99.90
13328;DHT22;6733;51.044;3.746;2023-03-24T15:49:56;15.30;99.90
13328;DHT22;6733;51.044;3.746;2023-03-24T15:52:29;15.20;99.90
13328;DHT22;6733;51.044;3.746;2023-03-24T15:55:05;15.10;99.90
13328;DHT22;6733;51.044;3.746;2023-03-24T15:57:39;16.30;99.90
13328;DHT22;6733;51.044;3.746;2023-03-24T16:00:17;15.60;99.90
13328;DHT22;6733;51.044;3.746;2023-03-24T16:02:50;14.90;99.90
13328;DHT22;6733;51.044;3.746;2023-03-24T16:05:29;14.80;99.90
13328;DHT22;6733;51.044;3.746;2023-03-24T16:08:04;14.70;99.90
13328;DHT22;6733;51.044;3.746;2023-03-24T16:10:33;15.70;99.90
13328;DHT22;6733;51.044;3.746;2023-03-24T16:13:18;16.80;99.90
13328;DHT22;6733;51.044;3.746;2023-03-24T16:16:18;15.70;99.90
13328;DHT22;6733;51.044;3.746;2023-03-24T16:18:47;15.20;99.90
13328;DHT22;6733;51.044;3.746;2023-03-24T16:23:43;14.80;99.90
13328;DHT22;6733;51.044;3.746;2023-03-24T16:28:46;14.60;99.90
13328;DHT22;6733;51.044;3.746;2023-03-24T16:31:19;14.60;99.90
13328;DHT22;6733;51.044;3.746;2023-03-24T16:33:47;14.60;99.90
13328;DHT22;6733;51.044;3.746;2023-03-24T16:36:14;14.60;99.90
13328;DHT22;6733;51.044;3.746;2023-03-24T16:38:40;14.60;99.90
13328;DHT22;6733;51.044;3.746;2023-03-24T16:41:08;14.40;99.90
13328;DHT22;6733;51.044;3.746;2023-03-24T16:43:36;14.30;99.90
13328;DHT22;6733;51.044;3.746;2023-03-24T16:46:02;14.20;99.90
13328;DHT22;6733;51.044;3.746;2023-03-24T16:48:28;14.30;99.90
13328;DHT22;6733;51.044;3.746;2023-03-24T16:50:54;14.30;99.90
13328;DHT22;6733;51.044;3.746;2023-03-24T16:53:23;14.30;99.90
13328;DHT22;6733;51.044;3.746;2023-03-24T16:55:49;14.20;99.90
13328;DHT22;6733;51.044;3.746;2023-03-24T16:58:16;14.10;99.90
13328;DHT22;6733;51.044;3.746;2023-03-24T17:00:42;14.10;99.90
13328;DHT22;6733;51.044;3.746;2023-03-24T17:03:10;14.00;99.90
13328;DHT22;6733;51.044;3.746;2023-03-24T17:05:47;14.00;99.90
13328;DHT22;6733;51.044;3.746;2023-03-24T17:08:14;14.00;99.90
13328;DHT22;6733;51.044;3.746;2023-03-24T17:10:42;14.00;99.90
13328;DHT22;6733;51.044;3.746;2023-03-24T17:13:20;14.00;99.90
13328;DHT22;6733;51.044;3.746;2023-03-24T17:15:48;14.00;99.90
13328;DHT22;6733;51.044;3.746;2023-03-24T17:18:14;14.00;99.90
13328;DHT22;6733;51.044;3.746;2023-03-24T17:20:41;13.90;99.90
13328;DHT22;6733;51.044;3.746;2023-03-24T17:23:09;13.90;99.90
13328;DHT22;6733;51.044;3.746;2023-03-24T17:25:36;13.90;99.90
13328;DHT22;6733;51.044;3.746;2023-03-24T17:28:03;13.80;99.90
13328;DHT22;6733;51.044;3.746;2023-03-24T17:30:31;13.80;99.90
13328;DHT22;6733;51.044;3.746;2023-03-24T17:32:57;13.70;99.90
13328;DHT22;6733;51.044;3.746;2023-03-24T17:35:23;13.70;99.90
13328;DHT22;6733;51.044;3.746;2023-03-24T17:37:50;13.60;99.90
13328;DHT22;6733;51.044;3.746;2023-03-24T17:40:18;13.60;99.90
13328;DHT22;6733;51.044;3.746;2023-03-24T17:42:46;13.60;99.90
13328;DHT22;6733;51.044;3.746;2023-03-24T17:45:16;13.50;99.90
13328;DHT22;6733;51.044;3.746;2023-03-24T17:47:42;13.40;99.90
13328;DHT22;6733;51.044;3.746;2023-03-24T17:50:09;13.30;99.90
13328;DHT22;6733;51.044;3.746;2023-03-24T17:52:37;13.20;99.90
13328;DHT22;6733;51.044;3.746;2023-03-24T17:55:04;13.10;99.90
13328;DHT22;6733;51.044;3.746;2023-03-24T17:57:31;13.00;99.90
13328;DHT22;6733;51.044;3.746;2023-03-24T17:59:58;12.90;99.90
13328;DHT22;6733;51.044;3.746;2023-03-24T18:02:24;12.70;99.90
13328;DHT22;6733;51.044;3.746;2023-03-24T18:04:50;12.60;99.90
13328;DHT22;6733;51.044;3.746;2023-03-24T18:07:17;12.50;99.90
13328;DHT22;6733;51.044;3.746;2023-03-24T18:09:43;12.40;99.90
13328;DHT22;6733;51.044;3.746;2023-03-24T18:12:09;12.50;99.90
13328;DHT22;6733;51.044;3.746;2023-03-24T18:14:35;12.60;99.90
13328;DHT22;6733;51.044;3.746;2023-03-24T18:17:01;12.70;99.90
13328;DHT22;6733;51.044;3.746;2023-03-24T18:19:28;12.60;99.90
13328;DHT22;6733;51.044;3.746;2023-03-24T18:21:54;12.60;99.90
13328;DHT22;6733;51.044;3.746;2023-03-24T18:24:20;12.50;99.90
13328;DHT22;6733;51.044;3.746;2023-03-24T18:26:46;12.50;99.90
13328;DHT22;6733;51.044;3.746;2023-03-24T18:29:13;12.50;99.90
13328;DHT22;6733;51.044;3.746;2023-03-24T18:31:39;12.50;99.90